sensor_id;sensor_type;location;lat;lon;timestamp;P1;durP1;ratioP1;P2;durP2;ratioP2
64686;SDS011;51113;53.646;-113.674;2023-02-27T00:01:49;8.20;;;4.28;;
64686;SDS011;51113;53.646;-113.674;2023-02-27T00:04:18;8.77;;;4.25;;
64686;SDS011;51113;53.646;-113.674;2023-02-27T00:06:46;7.40;;;3.75;;
64686;SDS011;51113;53.646;-113.674;2023-02-27T00:09:15;6.50;;;3.40;;
64686;SDS011;51113;53.646;-113.674;2023-02-27T00:11:44;10.05;;;3.58;;
64686;SDS011;51113;53.646;-113.674;2023-02-27T00:14:12;8.20;;;3.85;;
64686;SDS011;51113;53.646;-113.674;2023-02-27T00:16:41;8.68;;;3.58;;
64686;SDS011;51113;53.646;-113.674;2023-02-27T00:19:10;9.05;;;3.42;;
64686;SDS011;51113;53.646;-113.674;2023-02-27T00:21:40;7.45;;;3.30;;
64686;SDS011;51113;53.646;-113.674;2023-02-27T00:24:11;6.63;;;3.90;;
64686;SDS011;51113;53.646;-113.674;2023-02-27T00:26:40;7.47;;;3.83;;
64686;SDS011;51113;53.646;-113.674;2023-02-27T00:29:08;7.90;;;3.92;;
64686;SDS011;51113;53.646;-113.674;2023-02-27T00:31:37;19.35;;;4.45;;
64686;SDS011;51113;53.646;-113.674;2023-02-27T00:34:06;7.40;;;4.03;;
64686;SDS011;51113;53.646;-113.674;2023-02-27T00:36:34;11.77;;;3.20;;
64686;SDS011;51113;53.646;-113.674;2023-02-27T00:39:03;6.15;;;3.40;;
64686;SDS011;51113;53.646;-113.674;2023-02-27T00:41:32;7.30;;;3.42;;
64686;SDS011;51113;53.646;-113.674;2023-02-27T00:44:00;6.05;;;3.30;;
64686;SDS011;51113;53.646;-113.674;2023-02-27T00:46:29;7.78;;;3.83;;
64686;SDS011;51113;53.646;-113.674;2023-02-27T00:48:58;5.47;;;3.20;;
64686;SDS011;51113;53.646;-113.674;2023-02-27T00:51:26;10.18;;;4.18;;
64686;SDS011;51113;53.646;-113.674;2023-02-27T00:53:55;6.07;;;3.53;;
64686;SDS011;51113;53.646;-113.674;2023-02-27T00:56:24;8.07;;;4.03;;
64686;SDS011;51113;53.646;-113.674;2023-02-27T00:58:53;7.15;;;3.92;;
64686;SDS011;51113;53.646;-113.674;2023-02-27T01:01:22;11.48;;;4.10;;
64686;SDS011;51113;53.646;-113.674;2023-02-27T01:03:51;9.57;;;4.10;;
64686;SDS011;51113;53.646;-113.674;2023-02-27T01:06:20;6.90;;;4.25;;
64686;SDS011;51113;53.646;-113.674;2023-02-27T01:08:48;11.48;;;4.25;;
64686;SDS011;51113;53.646;-113.674;2023-02-27T01:11:18;8.10;;;3.97;;
64686;SDS011;51113;53.646;-113.674;2023-02-27T01:13:46;8.60;;;4.53;;
64686;SDS011;51113;53.646;-113.674;2023-02-27T01:16:15;8.90;;;4.53;;
64686;SDS011;51113;53.646;-113.674;2023-02-27T01:18:44;7.65;;;4.00;;
64686;SDS011;51113;53.646;-113.674;2023-02-27T01:21:15;7.32;;;4.25;;
64686;SDS011;51113;53.646;-113.674;2023-02-27T01:23:44;14.00;;;4.72;;
64686;SDS011;51113;53.646;-113.674;2023-02-27T01:26:12;8.95;;;4.00;;
64686;SDS011;51113;53.646;-113.674;2023-02-27T01:28:41;10.18;;;4.72;;
64686;SDS011;51113;53.646;-113.674;2023-02-27T01:31:10;9.20;;;4.55;;
64686;SDS011;51113;53.646;-113.674;2023-02-27T01:33:38;8.13;;;4.25;;
64686;SDS011;51113;53.646;-113.674;2023-02-27T01:36:07;10.57;;;4.82;;
64686;SDS011;51113;53.646;-113.674;2023-02-27T01:38:36;7.65;;;4.28;;
64686;SDS011;51113;53.646;-113.674;2023-02-27T01:41:05;8.80;;;4.72;;
64686;SDS011;51113;53.646;-113.674;2023-02-27T01:43:51;8.13;;;4.28;;
64686;SDS011;51113;53.646;-113.674;2023-02-27T01:46:22;11.32;;;4.28;;
64686;SDS011;51113;53.646;-113.674;2023-02-27T01:48:51;13.57;;;4.25;;
64686;SDS011;51113;53.646;-113.674;2023-02-27T01:51:32;10.00;;;3.83;;
64686;SDS011;51113;53.646;-113.674;2023-02-27T01:54:04;6.75;;;3.92;;
64686;SDS011;51113;53.646;-113.674;2023-02-27T01:56:34;8.32;;;4.40;;
64686;SDS011;51113;53.646;-113.674;2023-02-27T01:59:04;11.30;;;5.07;;
64686;SDS011;51113;53.646;-113.674;2023-02-27T02:01:34;9.68;;;3.63;;
64686;SDS011;51113;53.646;-113.674;2023-02-27T02:06:59;7.55;;;4.63;;
64686;SDS011;51113;53.646;-113.674;2023-02-27T02:09:39;11.38;;;4.53;;
64686;SDS011;51113;53.646;-113.674;2023-02-27T02:12:35;6.53;;;4.13;;
64686;SDS011;51113;53.646;-113.674;2023-02-27T02:15:05;9.52;;;4.50;;
64686;SDS011;51113;53.646;-113.674;2023-02-27T02:34:44;9.52;;;5.20;;
64686;SDS011;51113;53.646;-113.674;2023-02-27T02:40:35;13.77;;;4.97;;
64686;SDS011;51113;53.646;-113.674;2023-02-27T02:54:19;14.73;;;4.60;;
64686;SDS011;51113;53.646;-113.674;2023-02-27T02:57:05;10.68;;;5.53;;
64686;SDS011;51113;53.646;-113.674;2023-02-27T02:59:48;9.00;;;4.45;;
64686;SDS011;51113;53.646;-113.674;2023-02-27T03:02:24;10.70;;;4.57;;
64686;SDS011;51113;53.646;-113.674;2023-02-27T03:05:02;7.00;;;4.45;;
64686;SDS011;51113;53.646;-113.674;2023-02-27T03:07:39;15.55;;;4.88;;
64686;SDS011;51113;53.646;-113.674;2023-02-27T03:10:20;10.13;;;5.22;;
64686;SDS011;51113;53.646;-113.674;2023-02-27T03:12:54;7.38;;;4.40;;
64686;SDS011;51113;53.646;-113.674;2023-02-27T03:15:46;8.50;;;4.93;;
64686;SDS011;51113;53.646;-113.674;2023-02-27T03:18:17;7.45;;;4.90;;
64686;SDS011;51113;53.646;-113.674;2023-02-27T03:21:00;10.70;;;5.32;;
64686;SDS011;51113;53.646;-113.674;2023-02-27T03:23:34;12.18;;;5.00;;
64686;SDS011;51113;53.646;-113.674;2023-02-27T03:26:08;12.35;;;5.50;;
64686;SDS011;51113;53.646;-113.674;2023-02-27T03:28:41;15.68;;;5.55;;
64686;SDS011;51113;53.646;-113.674;2023-02-27T03:31:21;12.52;;;5.40;;
64686;SDS011;51113;53.646;-113.674;2023-02-27T03:34:20;9.75;;;4.90;;
64686;SDS011;51113;53.646;-113.674;2023-02-27T03:39:43;12.77;;;4.93;;
64686;SDS011;51113;53.646;-113.674;2023-02-27T03:42:23;8.95;;;5.20;;
64686;SDS011;51113;53.646;-113.674;2023-02-27T03:47:41;13.68;;;5.00;;
64686;SDS011;51113;53.646;-113.674;2023-02-27T03:50:10;9.70;;;5.45;;
64686;SDS011;51113;53.646;-113.674;2023-02-27T03:52:39;14.43;;;4.78;;
64686;SDS011;51113;53.646;-113.674;2023-02-27T03:55:18;13.30;;;5.72;;
64686;SDS011;51113;53.646;-113.674;2023-02-27T03:57:49;9.20;;;5.05;;
64686;SDS011;51113;53.646;-113.674;2023-02-27T04:00:20;9.85;;;5.60;;
64686;SDS011;51113;53.646;-113.674;2023-02-27T04:02:51;9.57;;;5.47;;
64686;SDS011;51113;53.646;-113.674;2023-02-27T04:05:21;13.07;;;5.38;;
64686;SDS011;51113;53.646;-113.674;2023-02-27T04:27:23;12.55;;;5.53;;
64686;SDS011;51113;53.646;-113.674;2023-02-27T04:32:34;18.73;;;5.53;;
64686;SDS011;51113;53.646;-113.674;2023-02-27T04:35:08;14.52;;;6.22;;
64686;SDS011;51113;53.646;-113.674;2023-02-27T04:38:01;22.50;;;6.00;;
64686;SDS011;51113;53.646;-113.674;2023-02-27T04:40:37;10.02;;;5.68;;
64686;SDS011;51113;53.646;-113.674;2023-02-27T04:43:32;15.70;;;6.13;;
64686;SDS011;51113;53.646;-113.674;2023-02-27T04:46:04;15.10;;;6.72;;
64686;SDS011;51113;53.646;-113.674;2023-02-27T04:48:36;12.93;;;6.95;;
64686;SDS011;51113;53.646;-113.674;2023-02-27T04:51:19;18.83;;;7.30;;
64686;SDS011;51113;53.646;-113.674;2023-02-27T04:53:55;13.25;;;6.88;;
64686;SDS011;51113;53.646;-113.674;2023-02-27T04:56:28;9.75;;;6.53;;
64686;SDS011;51113;53.646;-113.674;2023-02-27T04:59:00;11.10;;;6.27;;
64686;SDS011;51113;53.646;-113.674;2023-02-27T05:01:33;11.37;;;5.97;;
64686;SDS011;51113;53.646;-113.674;2023-02-27T05:04:04;12.18;;;6.40;;
64686;SDS011;51113;53.646;-113.674;2023-02-27T05:06:35;10.90;;;6.03;;
64686;SDS011;51113;53.646;-113.674;2023-02-27T05:12:03;11.48;;;6.43;;
64686;SDS011;51113;53.646;-113.674;2023-02-27T05:17:53;17.17;;;6.38;;
64686;SDS011;51113;53.646;-113.674;2023-02-27T05:20:02;9.48;;;5.80;;
64686;SDS011;51113;53.646;-113.674;2023-02-27T05:23:19;12.15;;;5.88;;
64686;SDS011;51113;53.646;-113.674;2023-02-27T05:25:36;22.02;;;7.43;;
64686;SDS011;51113;53.646;-113.674;2023-02-27T05:29:00;11.00;;;6.18;;
64686;SDS011;51113;53.646;-113.674;2023-02-27T05:36:51;10.13;;;6.05;;
64686;SDS011;51113;53.646;-113.674;2023-02-27T05:39:24;20.38;;;7.05;;
64686;SDS011;51113;53.646;-113.674;2023-02-27T05:41:57;10.13;;;5.72;;
64686;SDS011;51113;53.646;-113.674;2023-02-27T05:44:28;10.93;;;6.32;;
64686;SDS011;51113;53.646;-113.674;2023-02-27T05:47:03;10.93;;;5.97;;
64686;SDS011;51113;53.646;-113.674;2023-02-27T05:49:35;11.43;;;5.93;;
64686;SDS011;51113;53.646;-113.674;2023-02-27T05:52:06;12.10;;;6.20;;
64686;SDS011;51113;53.646;-113.674;2023-02-27T05:54:43;10.90;;;6.47;;
64686;SDS011;51113;53.646;-113.674;2023-02-27T05:57:34;10.33;;;5.83;;
64686;SDS011;51113;53.646;-113.674;2023-02-27T06:00:13;22.00;;;7.20;;
64686;SDS011;51113;53.646;-113.674;2023-02-27T06:02:48;12.00;;;6.38;;
64686;SDS011;51113;53.646;-113.674;2023-02-27T06:05:17;10.80;;;6.13;;
64686;SDS011;51113;53.646;-113.674;2023-02-27T06:07:46;11.65;;;6.03;;
64686;SDS011;51113;53.646;-113.674;2023-02-27T06:10:16;10.05;;;5.70;;
64686;SDS011;51113;53.646;-113.674;2023-02-27T06:12:46;9.70;;;5.88;;
64686;SDS011;51113;53.646;-113.674;2023-02-27T06:15:15;11.07;;;6.10;;
64686;SDS011;51113;53.646;-113.674;2023-02-27T06:17:45;12.45;;;6.10;;
64686;SDS011;51113;53.646;-113.674;2023-02-27T06:20:14;8.73;;;5.07;;
64686;SDS011;51113;53.646;-113.674;2023-02-27T06:22:42;11.00;;;5.65;;
64686;SDS011;51113;53.646;-113.674;2023-02-27T06:25:11;11.27;;;6.43;;
64686;SDS011;51113;53.646;-113.674;2023-02-27T06:27:40;12.02;;;5.90;;
64686;SDS011;51113;53.646;-113.674;2023-02-27T06:30:08;15.88;;;6.28;;
64686;SDS011;51113;53.646;-113.674;2023-02-27T06:32:38;10.00;;;5.90;;
64686;SDS011;51113;53.646;-113.674;2023-02-27T06:35:06;11.40;;;6.03;;
64686;SDS011;51113;53.646;-113.674;2023-02-27T06:37:35;11.10;;;5.82;;
64686;SDS011;51113;53.646;-113.674;2023-02-27T06:40:04;12.02;;;6.15;;
64686;SDS011;51113;53.646;-113.674;2023-02-27T06:42:38;12.35;;;6.32;;
64686;SDS011;51113;53.646;-113.674;2023-02-27T06:45:08;10.90;;;5.60;;
64686;SDS011;51113;53.646;-113.674;2023-02-27T06:47:38;13.68;;;6.28;;
64686;SDS011;51113;53.646;-113.674;2023-02-27T06:50:08;14.50;;;6.75;;
64686;SDS011;51113;53.646;-113.674;2023-02-27T06:52:39;11.27;;;5.53;;
64686;SDS011;51113;53.646;-113.674;2023-02-27T06:55:08;16.75;;;6.07;;
64686;SDS011;51113;53.646;-113.674;2023-02-27T06:57:37;10.45;;;5.80;;
64686;SDS011;51113;53.646;-113.674;2023-02-27T07:00:06;8.90;;;5.38;;
64686;SDS011;51113;53.646;-113.674;2023-02-27T07:02:36;8.85;;;5.25;;
64686;SDS011;51113;53.646;-113.674;2023-02-27T07:05:06;9.60;;;5.22;;
64686;SDS011;51113;53.646;-113.674;2023-02-27T07:07:35;11.15;;;5.22;;
64686;SDS011;51113;53.646;-113.674;2023-02-27T07:10:05;9.77;;;4.80;;
64686;SDS011;51113;53.646;-113.674;2023-02-27T07:12:38;7.80;;;4.88;;
64686;SDS011;51113;53.646;-113.674;2023-02-27T07:15:07;10.52;;;5.13;;
64686;SDS011;51113;53.646;-113.674;2023-02-27T07:17:36;8.48;;;5.35;;
64686;SDS011;51113;53.646;-113.674;2023-02-27T07:20:06;7.93;;;4.82;;
64686;SDS011;51113;53.646;-113.674;2023-02-27T07:22:36;10.35;;;5.40;;
64686;SDS011;51113;53.646;-113.674;2023-02-27T07:25:06;10.38;;;5.15;;
64686;SDS011;51113;53.646;-113.674;2023-02-27T07:27:35;9.45;;;5.03;;
64686;SDS011;51113;53.646;-113.674;2023-02-27T07:30:04;10.07;;;4.93;;
64686;SDS011;51113;53.646;-113.674;2023-02-27T07:32:33;11.18;;;5.65;;
64686;SDS011;51113;53.646;-113.674;2023-02-27T07:35:01;9.98;;;4.85;;
64686;SDS011;51113;53.646;-113.674;2023-02-27T07:37:30;12.63;;;5.03;;
64686;SDS011;51113;53.646;-113.674;2023-02-27T07:39:59;9.48;;;5.68;;
64686;SDS011;51113;53.646;-113.674;2023-02-27T07:42:28;9.52;;;5.47;;
64686;SDS011;51113;53.646;-113.674;2023-02-27T07:44:56;10.32;;;5.68;;
64686;SDS011;51113;53.646;-113.674;2023-02-27T07:47:25;10.77;;;6.13;;
64686;SDS011;51113;53.646;-113.674;2023-02-27T07:49:53;11.38;;;5.68;;
64686;SDS011;51113;53.646;-113.674;2023-02-27T07:52:22;9.38;;;6.07;;
64686;SDS011;51113;53.646;-113.674;2023-02-27T07:54:51;9.80;;;5.85;;
64686;SDS011;51113;53.646;-113.674;2023-02-27T07:57:20;15.63;;;6.18;;
64686;SDS011;51113;53.646;-113.674;2023-02-27T07:59:49;9.55;;;6.03;;
64686;SDS011;51113;53.646;-113.674;2023-02-27T08:02:17;13.88;;;6.22;;
64686;SDS011;51113;53.646;-113.674;2023-02-27T08:04:46;12.45;;;6.53;;
64686;SDS011;51113;53.646;-113.674;2023-02-27T08:07:15;13.45;;;6.10;;
64686;SDS011;51113;53.646;-113.674;2023-02-27T08:09:43;11.00;;;5.85;;
64686;SDS011;51113;53.646;-113.674;2023-02-27T08:12:15;14.25;;;5.85;;
64686;SDS011;51113;53.646;-113.674;2023-02-27T08:14:44;9.02;;;5.47;;
64686;SDS011;51113;53.646;-113.674;2023-02-27T08:17:13;10.98;;;6.28;;
64686;SDS011;51113;53.646;-113.674;2023-02-27T08:19:42;10.30;;;6.78;;
64686;SDS011;51113;53.646;-113.674;2023-02-27T08:22:11;18.33;;;7.00;;
64686;SDS011;51113;53.646;-113.674;2023-02-27T08:24:39;10.18;;;6.40;;
64686;SDS011;51113;53.646;-113.674;2023-02-27T08:27:08;16.45;;;6.30;;
64686;SDS011;51113;53.646;-113.674;2023-02-27T08:29:37;15.07;;;6.60;;
64686;SDS011;51113;53.646;-113.674;2023-02-27T08:32:06;14.20;;;6.00;;
64686;SDS011;51113;53.646;-113.674;2023-02-27T08:34:34;10.35;;;6.00;;
64686;SDS011;51113;53.646;-113.674;2023-02-27T08:37:03;15.60;;;6.35;;
64686;SDS011;51113;53.646;-113.674;2023-02-27T08:39:32;9.57;;;5.85;;
64686;SDS011;51113;53.646;-113.674;2023-02-27T08:42:00;8.77;;;5.82;;
64686;SDS011;51113;53.646;-113.674;2023-02-27T08:44:29;11.35;;;6.45;;
64686;SDS011;51113;53.646;-113.674;2023-02-27T08:46:58;11.50;;;6.10;;
64686;SDS011;51113;53.646;-113.674;2023-02-27T08:49:26;10.90;;;5.78;;
64686;SDS011;51113;53.646;-113.674;2023-02-27T08:51:55;10.32;;;5.57;;
64686;SDS011;51113;53.646;-113.674;2023-02-27T08:54:24;7.00;;;4.90;;
64686;SDS011;51113;53.646;-113.674;2023-02-27T08:56:52;9.80;;;5.43;;
64686;SDS011;51113;53.646;-113.674;2023-02-27T08:59:21;10.35;;;5.68;;
64686;SDS011;51113;53.646;-113.674;2023-02-27T09:01:50;8.27;;;5.20;;
64686;SDS011;51113;53.646;-113.674;2023-02-27T09:04:19;10.18;;;4.93;;
64686;SDS011;51113;53.646;-113.674;2023-02-27T09:06:47;15.05;;;5.88;;
64686;SDS011;51113;53.646;-113.674;2023-02-27T09:09:16;10.38;;;4.72;;
64686;SDS011;51113;53.646;-113.674;2023-02-27T09:11:50;9.48;;;4.60;;
64686;SDS011;51113;53.646;-113.674;2023-02-27T09:14:19;9.02;;;4.88;;
64686;SDS011;51113;53.646;-113.674;2023-02-27T09:16:47;9.85;;;5.30;;
64686;SDS011;51113;53.646;-113.674;2023-02-27T09:19:16;9.63;;;5.50;;
64686;SDS011;51113;53.646;-113.674;2023-02-27T09:21:45;14.88;;;5.70;;
64686;SDS011;51113;53.646;-113.674;2023-02-27T09:24:13;14.38;;;7.50;;
64686;SDS011;51113;53.646;-113.674;2023-02-27T09:26:46;11.50;;;6.40;;
64686;SDS011;51113;53.646;-113.674;2023-02-27T09:29:15;12.82;;;7.30;;
64686;SDS011;51113;53.646;-113.674;2023-02-27T09:31:44;13.68;;;6.63;;
64686;SDS011;51113;53.646;-113.674;2023-02-27T09:34:13;17.52;;;6.53;;
64686;SDS011;51113;53.646;-113.674;2023-02-27T09:36:42;11.27;;;6.95;;
64686;SDS011;51113;53.646;-113.674;2023-02-27T09:39:11;12.38;;;6.40;;
64686;SDS011;51113;53.646;-113.674;2023-02-27T09:41:47;14.43;;;6.50;;
64686;SDS011;51113;53.646;-113.674;2023-02-27T09:47:15;11.98;;;6.55;;
64686;SDS011;51113;53.646;-113.674;2023-02-27T09:49:50;13.77;;;6.32;;
64686;SDS011;51113;53.646;-113.674;2023-02-27T09:52:30;10.18;;;5.93;;
64686;SDS011;51113;53.646;-113.674;2023-02-27T09:54:59;9.48;;;5.40;;
64686;SDS011;51113;53.646;-113.674;2023-02-27T09:57:48;10.80;;;6.40;;
64686;SDS011;51113;53.646;-113.674;2023-02-27T10:04:23;9.63;;;5.25;;
64686;SDS011;51113;53.646;-113.674;2023-02-27T10:06:25;11.45;;;5.60;;
64686;SDS011;51113;53.646;-113.674;2023-02-27T10:09:21;10.55;;;5.18;;
64686;SDS011;51113;53.646;-113.674;2023-02-27T10:12:14;10.55;;;5.20;;
64686;SDS011;51113;53.646;-113.674;2023-02-27T10:14:46;10.50;;;5.82;;
64686;SDS011;51113;53.646;-113.674;2023-02-27T10:17:30;10.55;;;4.78;;
64686;SDS011;51113;53.646;-113.674;2023-02-27T10:20:06;11.82;;;5.07;;
64686;SDS011;51113;53.646;-113.674;2023-02-27T10:22:38;13.20;;;5.25;;
64686;SDS011;51113;53.646;-113.674;2023-02-27T10:25:14;11.43;;;5.33;;
64686;SDS011;51113;53.646;-113.674;2023-02-27T10:27:57;9.07;;;4.63;;
64686;SDS011;51113;53.646;-113.674;2023-02-27T10:30:32;9.75;;;4.65;;
64686;SDS011;51113;53.646;-113.674;2023-02-27T10:35:53;8.98;;;4.57;;
64686;SDS011;51113;53.646;-113.674;2023-02-27T10:38:35;7.72;;;4.75;;
64686;SDS011;51113;53.646;-113.674;2023-02-27T10:41:12;8.45;;;4.03;;
64686;SDS011;51113;53.646;-113.674;2023-02-27T10:43:42;7.18;;;3.88;;
64686;SDS011;51113;53.646;-113.674;2023-02-27T10:46:15;7.85;;;4.15;;
64686;SDS011;51113;53.646;-113.674;2023-02-27T10:48:46;7.22;;;4.22;;
64686;SDS011;51113;53.646;-113.674;2023-02-27T10:56:53;10.93;;;3.95;;
64686;SDS011;51113;53.646;-113.674;2023-02-27T11:01:57;5.28;;;2.97;;
64686;SDS011;51113;53.646;-113.674;2023-02-27T11:06:56;6.43;;;3.47;;
64686;SDS011;51113;53.646;-113.674;2023-02-27T11:09:27;6.75;;;3.22;;
64686;SDS011;51113;53.646;-113.674;2023-02-27T11:14:59;5.55;;;3.03;;
64686;SDS011;51113;53.646;-113.674;2023-02-27T11:17:48;6.32;;;3.00;;
64686;SDS011;51113;53.646;-113.674;2023-02-27T11:20:39;6.32;;;2.83;;
64686;SDS011;51113;53.646;-113.674;2023-02-27T11:23:14;5.53;;;2.63;;
64686;SDS011;51113;53.646;-113.674;2023-02-27T11:25:45;7.30;;;2.30;;
64686;SDS011;51113;53.646;-113.674;2023-02-27T11:28:22;6.22;;;2.63;;
64686;SDS011;51113;53.646;-113.674;2023-02-27T11:33:55;4.43;;;2.60;;
64686;SDS011;51113;53.646;-113.674;2023-02-27T11:36:37;4.63;;;2.25;;
64686;SDS011;51113;53.646;-113.674;2023-02-27T11:42:15;6.65;;;2.25;;
64686;SDS011;51113;53.646;-113.674;2023-02-27T11:44:49;5.68;;;2.60;;
64686;SDS011;51113;53.646;-113.674;2023-02-27T11:47:23;3.05;;;2.00;;
64686;SDS011;51113;53.646;-113.674;2023-02-27T11:50:01;4.00;;;2.17;;
64686;SDS011;51113;53.646;-113.674;2023-02-27T11:56:06;4.30;;;2.33;;
64686;SDS011;51113;53.646;-113.674;2023-02-27T11:58:39;5.53;;;2.17;;
64686;SDS011;51113;53.646;-113.674;2023-02-27T12:01:25;3.80;;;2.22;;
64686;SDS011;51113;53.646;-113.674;2023-02-27T12:03:59;6.20;;;2.55;;
64686;SDS011;51113;53.646;-113.674;2023-02-27T12:07:33;4.10;;;2.13;;
64686;SDS011;51113;53.646;-113.674;2023-02-27T12:09:56;4.97;;;2.22;;
64686;SDS011;51113;53.646;-113.674;2023-02-27T12:15:29;2.90;;;1.80;;
64686;SDS011;51113;53.646;-113.674;2023-02-27T12:18:15;3.47;;;1.85;;
64686;SDS011;51113;53.646;-113.674;2023-02-27T12:21:00;6.03;;;2.20;;
64686;SDS011;51113;53.646;-113.674;2023-02-27T12:24:06;3.08;;;1.90;;
64686;SDS011;51113;53.646;-113.674;2023-02-27T12:26:44;5.47;;;2.30;;
64686;SDS011;51113;53.646;-113.674;2023-02-27T12:34:46;2.85;;;1.80;;
64686;SDS011;51113;53.646;-113.674;2023-02-27T12:37:22;3.05;;;1.83;;
64686;SDS011;51113;53.646;-113.674;2023-02-27T12:39:57;3.83;;;1.90;;
64686;SDS011;51113;53.646;-113.674;2023-02-27T12:45:20;4.93;;;2.03;;
64686;SDS011;51113;53.646;-113.674;2023-02-27T12:50:58;4.30;;;2.22;;
64686;SDS011;51113;53.646;-113.674;2023-02-27T12:56:15;3.42;;;1.80;;
64686;SDS011;51113;53.646;-113.674;2023-02-27T13:01:50;3.33;;;1.88;;
64686;SDS011;51113;53.646;-113.674;2023-02-27T13:07:30;2.33;;;1.60;;
64686;SDS011;51113;53.646;-113.674;2023-02-27T13:10:12;2.90;;;2.00;;
64686;SDS011;51113;53.646;-113.674;2023-02-27T13:12:48;3.33;;;1.77;;
64686;SDS011;51113;53.646;-113.674;2023-02-27T13:15:22;3.63;;;1.70;;
64686;SDS011;51113;53.646;-113.674;2023-02-27T13:18:24;4.45;;;2.53;;
64686;SDS011;51113;53.646;-113.674;2023-02-27T13:24:17;5.28;;;2.30;;
64686;SDS011;51113;53.646;-113.674;2023-02-27T13:27:39;4.35;;;1.70;;
64686;SDS011;51113;53.646;-113.674;2023-02-27T13:30:03;3.67;;;1.75;;
64686;SDS011;51113;53.646;-113.674;2023-02-27T13:35:57;4.47;;;2.10;;
64686;SDS011;51113;53.646;-113.674;2023-02-27T13:38:40;2.60;;;1.42;;
64686;SDS011;51113;53.646;-113.674;2023-02-27T13:43:48;2.92;;;1.75;;
64686;SDS011;51113;53.646;-113.674;2023-02-27T13:46:33;9.02;;;1.90;;
64686;SDS011;51113;53.646;-113.674;2023-02-27T13:49:20;4.50;;;2.10;;
64686;SDS011;51113;53.646;-113.674;2023-02-27T13:51:55;6.20;;;2.10;;
64686;SDS011;51113;53.646;-113.674;2023-02-27T13:54:33;2.72;;;1.60;;
64686;SDS011;51113;53.646;-113.674;2023-02-27T13:57:16;4.18;;;1.88;;
64686;SDS011;51113;53.646;-113.674;2023-02-27T13:59:52;4.88;;;1.70;;
64686;SDS011;51113;53.646;-113.674;2023-02-27T14:05:00;3.28;;;1.90;;
64686;SDS011;51113;53.646;-113.674;2023-02-27T14:10:26;3.38;;;2.15;;
64686;SDS011;51113;53.646;-113.674;2023-02-27T14:12:57;4.13;;;1.98;;
64686;SDS011;51113;53.646;-113.674;2023-02-27T14:17:59;5.05;;;2.28;;
64686;SDS011;51113;53.646;-113.674;2023-02-27T14:25:56;3.63;;;2.17;;
64686;SDS011;51113;53.646;-113.674;2023-02-27T14:28:35;5.30;;;2.38;;
64686;SDS011;51113;53.646;-113.674;2023-02-27T14:31:30;4.72;;;2.28;;
64686;SDS011;51113;53.646;-113.674;2023-02-27T14:34:00;3.95;;;2.13;;
64686;SDS011;51113;53.646;-113.674;2023-02-27T14:36:40;3.70;;;2.05;;
64686;SDS011;51113;53.646;-113.674;2023-02-27T14:44:52;3.67;;;1.98;;
64686;SDS011;51113;53.646;-113.674;2023-02-27T14:49:57;5.78;;;2.58;;
64686;SDS011;51113;53.646;-113.674;2023-02-27T14:52:28;4.32;;;1.80;;
64686;SDS011;51113;53.646;-113.674;2023-02-27T14:57:51;8.50;;;2.60;;
64686;SDS011;51113;53.646;-113.674;2023-02-27T15:00:31;6.60;;;2.03;;
64686;SDS011;51113;53.646;-113.674;2023-02-27T15:03:09;4.95;;;2.30;;
64686;SDS011;51113;53.646;-113.674;2023-02-27T15:05:50;4.80;;;2.20;;
64686;SDS011;51113;53.646;-113.674;2023-02-27T15:08:22;5.53;;;1.95;;
64686;SDS011;51113;53.646;-113.674;2023-02-27T15:10:53;3.35;;;2.00;;
64686;SDS011;51113;53.646;-113.674;2023-02-27T15:13:24;9.27;;;2.67;;
64686;SDS011;51113;53.646;-113.674;2023-02-27T15:18:51;5.10;;;2.40;;
64686;SDS011;51113;53.646;-113.674;2023-02-27T15:21:23;7.95;;;2.38;;
64686;SDS011;51113;53.646;-113.674;2023-02-27T15:23:53;5.28;;;2.83;;
64686;SDS011;51113;53.646;-113.674;2023-02-27T15:26:22;4.30;;;2.40;;
64686;SDS011;51113;53.646;-113.674;2023-02-27T15:28:52;4.95;;;2.60;;
64686;SDS011;51113;53.646;-113.674;2023-02-27T15:31:21;3.28;;;2.20;;
64686;SDS011;51113;53.646;-113.674;2023-02-27T15:33:53;3.42;;;2.20;;
64686;SDS011;51113;53.646;-113.674;2023-02-27T15:36:27;3.72;;;1.98;;
64686;SDS011;51113;53.646;-113.674;2023-02-27T15:39:04;3.40;;;2.17;;
64686;SDS011;51113;53.646;-113.674;2023-02-27T15:41:55;5.22;;;2.67;;
64686;SDS011;51113;53.646;-113.674;2023-02-27T15:44:28;4.68;;;2.03;;
64686;SDS011;51113;53.646;-113.674;2023-02-27T15:47:03;4.22;;;2.60;;
64686;SDS011;51113;53.646;-113.674;2023-02-27T15:49:33;4.57;;;2.30;;
64686;SDS011;51113;53.646;-113.674;2023-02-27T15:55:22;4.78;;;2.28;;
64686;SDS011;51113;53.646;-113.674;2023-02-27T15:57:43;3.45;;;2.17;;
64686;SDS011;51113;53.646;-113.674;2023-02-27T16:00:28;4.32;;;2.20;;
64686;SDS011;51113;53.646;-113.674;2023-02-27T16:02:57;4.88;;;2.10;;
64686;SDS011;51113;53.646;-113.674;2023-02-27T16:05:29;3.63;;;1.90;;
64686;SDS011;51113;53.646;-113.674;2023-02-27T16:08:02;5.25;;;2.40;;
64686;SDS011;51113;53.646;-113.674;2023-02-27T16:10:40;4.15;;;2.15;;
64686;SDS011;51113;53.646;-113.674;2023-02-27T16:13:20;4.13;;;2.22;;
64686;SDS011;51113;53.646;-113.674;2023-02-27T16:18:56;2.63;;;1.73;;
64686;SDS011;51113;53.646;-113.674;2023-02-27T16:21:27;7.22;;;2.35;;
64686;SDS011;51113;53.646;-113.674;2023-02-27T16:26:49;3.45;;;2.05;;
64686;SDS011;51113;53.646;-113.674;2023-02-27T16:29:20;5.47;;;2.22;;
64686;SDS011;51113;53.646;-113.674;2023-02-27T16:31:51;4.47;;;2.22;;
64686;SDS011;51113;53.646;-113.674;2023-02-27T16:34:27;3.55;;;2.05;;
64686;SDS011;51113;53.646;-113.674;2023-02-27T16:37:21;4.65;;;2.15;;
64686;SDS011;51113;53.646;-113.674;2023-02-27T16:39:50;3.90;;;2.25;;
64686;SDS011;51113;53.646;-113.674;2023-02-27T16:42:21;3.63;;;1.85;;
64686;SDS011;51113;53.646;-113.674;2023-02-27T16:44:49;3.50;;;2.03;;
64686;SDS011;51113;53.646;-113.674;2023-02-27T16:47:18;3.75;;;2.08;;
64686;SDS011;51113;53.646;-113.674;2023-02-27T16:49:47;7.53;;;2.20;;
64686;SDS011;51113;53.646;-113.674;2023-02-27T16:52:16;3.42;;;1.95;;
64686;SDS011;51113;53.646;-113.674;2023-02-27T16:54:45;5.00;;;2.25;;
64686;SDS011;51113;53.646;-113.674;2023-02-27T16:57:13;7.03;;;2.13;;
64686;SDS011;51113;53.646;-113.674;2023-02-27T16:59:44;5.38;;;2.35;;
64686;SDS011;51113;53.646;-113.674;2023-02-27T17:02:13;3.40;;;1.90;;
64686;SDS011;51113;53.646;-113.674;2023-02-27T17:04:42;4.22;;;2.10;;
64686;SDS011;51113;53.646;-113.674;2023-02-27T17:07:14;4.35;;;2.00;;
64686;SDS011;51113;53.646;-113.674;2023-02-27T17:09:44;4.05;;;2.10;;
64686;SDS011;51113;53.646;-113.674;2023-02-27T17:12:13;7.63;;;2.50;;
64686;SDS011;51113;53.646;-113.674;2023-02-27T17:14:42;3.80;;;1.98;;
64686;SDS011;51113;53.646;-113.674;2023-02-27T17:17:11;5.40;;;2.20;;
64686;SDS011;51113;53.646;-113.674;2023-02-27T17:19:39;5.10;;;2.25;;
64686;SDS011;51113;53.646;-113.674;2023-02-27T17:22:08;3.75;;;1.90;;
64686;SDS011;51113;53.646;-113.674;2023-02-27T17:24:37;4.90;;;1.92;;
64686;SDS011;51113;53.646;-113.674;2023-02-27T17:27:06;3.55;;;2.00;;
64686;SDS011;51113;53.646;-113.674;2023-02-27T17:29:38;4.35;;;2.20;;
64686;SDS011;51113;53.646;-113.674;2023-02-27T17:32:07;11.07;;;2.13;;
64686;SDS011;51113;53.646;-113.674;2023-02-27T17:34:35;4.53;;;2.40;;